createdAt,value
2022-11-09T00:00:34.483Z,100486.25
2022-11-09T00:02:06.395Z,100489.72
2022-11-09T00:03:38.371Z,100493.16
2022-11-09T00:05:10.206Z,100491.47
2022-11-09T00:06:44.879Z,100494.06
2022-11-09T00:08:18.942Z,100488.88
2022-11-09T00:09:51.091Z,100489.72
2022-11-09T00:11:23.061Z,100488.88
2022-11-09T00:12:54.913Z,100479.38
2022-11-09T00:14:26.828Z,100484.59
2022-11-09T00:15:59.406Z,100488.03
2022-11-09T00:17:31.338Z,100481.97
2022-11-09T00:19:03.213Z,100483.69
2022-11-09T00:20:35.006Z,100482.00
2022-11-09T00:22:06.825Z,100484.56
2022-11-09T00:23:38.637Z,100481.97
2022-11-09T00:25:10.424Z,100481.13
2022-11-09T00:26:42.294Z,100480.25
2022-11-09T00:28:14.262Z,100480.22
2022-11-09T00:29:46.065Z,100482.81
2022-11-09T00:31:19.560Z,100479.31
2022-11-09T00:32:51.548Z,100482.75
2022-11-09T00:34:23.371Z,100481.03
2022-11-09T00:35:55.223Z,100473.25
2022-11-09T00:37:27.063Z,100478.44
2022-11-09T00:38:59.824Z,100474.97
2022-11-09T00:40:31.700Z,100477.56
2022-11-09T00:42:03.537Z,100471.47
2022-11-09T00:43:35.390Z,100468.88
2022-11-09T00:45:07.836Z,100474.91
2022-11-09T00:46:39.675Z,100472.31
2022-11-09T00:48:11.654Z,100474.03
2022-11-09T00:49:43.431Z,100467.94
2022-11-09T00:51:15.339Z,100470.53
2022-11-09T00:52:48.815Z,100465.31
2022-11-09T00:54:20.609Z,100467.91
2022-11-09T00:56:02.663Z,100466.16
2022-11-09T00:57:34.513Z,100476.50
2022-11-09T00:59:06.365Z,100472.19
2022-11-09T01:00:38.181Z,100473.03
2022-11-09T01:02:10.118Z,100467.81
2022-11-09T01:03:42.154Z,100465.22
2022-11-09T01:05:13.945Z,100465.22
2022-11-09T01:06:45.839Z,100473.84
2022-11-09T01:08:17.654Z,100470.38
2022-11-09T01:09:49.465Z,100463.47
2022-11-09T01:11:21.787Z,100463.47
2022-11-09T01:12:53.586Z,100464.31
2022-11-09T01:14:25.592Z,100461.72
2022-11-09T01:15:57.373Z,100457.41
2022-11-09T01:17:29.344Z,100466.06
2022-11-09T01:19:01.162Z,100463.47
2022-11-09T01:20:33.019Z,100469.53
2022-11-09T01:22:04.781Z,100462.63
2022-11-09T01:23:37.001Z,100454.84
2022-11-09T01:25:08.945Z,100452.28
2022-11-09T01:26:40.820Z,100469.56
2022-11-09T01:28:12.716Z,100464.38
2022-11-09T01:29:44.565Z,100466.09
2022-11-09T01:31:17.754Z,100462.63
2022-11-09T01:32:49.615Z,100463.53
2022-11-09T01:34:21.425Z,100462.66
2022-11-09T01:35:53.235Z,100463.53
2022-11-09T01:37:25.122Z,100466.09
2022-11-09T01:38:57.006Z,100472.13
2022-11-09T01:40:28.912Z,100462.66
2022-11-09T01:42:00.696Z,100463.53
2022-11-09T01:43:32.599Z,100467.84
2022-11-09T01:45:23.089Z,100467.84
2022-11-09T01:46:55.727Z,100462.63
2022-11-09T01:48:33.881Z,100460.03
2022-11-09T01:50:05.773Z,100468.66
2022-11-09T01:51:38.877Z,100459.13
2022-11-09T01:53:13.323Z,100463.47
2022-11-09T01:54:46.718Z,100462.63
2022-11-09T01:56:18.497Z,100457.41
2022-11-09T01:58:22.849Z,100460.00
2022-11-09T01:59:55.902Z,100459.97
2022-11-09T02:01:27.907Z,100461.69
2022-11-09T02:03:01.246Z,100466.84
2022-11-09T02:04:37.173Z,100465.09
2022-11-09T02:06:09.262Z,100465.09
2022-11-09T02:07:41.050Z,100459.94
2022-11-09T02:09:28.485Z,100465.94
2022-11-09T02:11:10.186Z,100465.06
2022-11-09T02:12:42.095Z,100470.22
2022-11-09T02:14:13.940Z,100467.59
2022-11-09T02:15:46.231Z,100462.41
2022-11-09T02:17:19.071Z,100462.41
2022-11-09T02:18:52.962Z,100465.88
2022-11-09T02:20:27.704Z,100465.00
2022-11-09T02:21:59.548Z,100463.28
2022-11-09T02:23:31.326Z,100469.34
2022-11-09T02:25:04.128Z,100464.19
2022-11-09T02:26:39.032Z,100467.63
2022-11-09T02:28:10.896Z,100463.25
2022-11-09T02:29:43.658Z,100467.59
2022-11-09T02:31:15.511Z,100469.34
2022-11-09T02:34:20.516Z,100468.47
2022-11-09T02:35:52.355Z,100472.75
2022-11-09T02:37:28.376Z,100461.53
2022-11-09T02:39:00.321Z,100471.91
2022-11-09T02:40:33.423Z,100464.19
2022-11-09T02:42:10.018Z,100460.69
2022-11-09T02:43:42.612Z,100467.56
2022-11-09T02:45:14.426Z,100462.38
2022-11-09T02:46:46.540Z,100471.00
2022-11-09T02:48:18.466Z,100465.81
2022-11-09T02:49:50.682Z,100468.41
2022-11-09T02:51:22.508Z,100464.91
2022-11-09T02:52:54.350Z,100470.97
2022-11-09T02:54:26.188Z,100465.81
2022-11-09T02:55:58.067Z,100472.75
2022-11-09T02:57:30.121Z,100464.97
2022-11-09T02:59:03.625Z,100468.47
2022-11-09T03:00:35.446Z,100471.06
2022-11-09T03:02:07.459Z,100472.78
2022-11-09T03:03:39.517Z,100472.81
2022-11-09T03:05:11.446Z,100468.47
2022-11-09T03:06:43.342Z,100472.78
2022-11-09T03:08:15.200Z,100474.50
2022-11-09T03:09:47.029Z,100476.22
2022-11-09T03:11:18.897Z,100477.94
2022-11-09T03:12:50.837Z,100476.19
2022-11-09T03:14:22.717Z,100477.06
2022-11-09T03:15:54.670Z,100479.63
2022-11-09T03:17:26.977Z,100480.47
2022-11-09T03:18:59.061Z,100475.28
2022-11-09T03:20:30.846Z,100477.03
2022-11-09T03:22:02.622Z,100480.47
2022-11-09T03:25:10.875Z,100482.25
2022-11-09T03:26:42.675Z,100471.91
2022-11-09T03:28:14.590Z,100479.72
2022-11-09T03:29:46.386Z,100476.25
2022-11-09T03:31:18.490Z,100477.09
2022-11-09T03:32:50.877Z,100482.28
2022-11-09T03:34:22.817Z,100477.97
2022-11-09T03:35:54.620Z,100480.56
2022-11-09T03:37:26.463Z,100479.69
2022-11-09T03:38:58.355Z,100482.28
2022-11-09T03:40:30.840Z,100477.13
2022-11-09T03:42:02.703Z,100480.56
2022-11-09T03:43:34.749Z,100477.13
2022-11-09T03:45:07.987Z,100479.69
2022-11-09T03:46:41.000Z,100483.16
2022-11-09T03:48:12.891Z,100482.28
2022-11-09T03:49:44.728Z,100481.44
2022-11-09T03:51:16.548Z,100487.53
2022-11-09T03:52:48.503Z,100484.09
2022-11-09T03:54:20.340Z,100490.13
2022-11-09T03:55:52.131Z,100483.19
2022-11-09T03:57:23.968Z,100475.41
2022-11-09T03:58:55.731Z,100478.84
2022-11-09T04:00:27.916Z,100484.88
2022-11-09T04:01:59.947Z,100472.81
2022-11-09T04:03:31.818Z,100481.50
2022-11-09T04:05:03.625Z,100478.91
2022-11-09T04:06:35.629Z,100484.97
2022-11-09T04:08:07.706Z,100482.41
2022-11-09T04:09:39.497Z,100478.97
2022-11-09T04:11:11.337Z,100485.88
2022-11-09T04:12:43.237Z,100485.88
2022-11-09T04:14:15.119Z,100487.63
2022-11-09T04:15:47.080Z,100485.88
2022-11-09T04:17:19.095Z,100489.38
2022-11-09T04:18:51.009Z,100490.28
2022-11-09T04:20:24.236Z,100486.88
2022-11-09T04:21:56.101Z,100488.63
2022-11-09T04:23:27.970Z,100495.59
2022-11-09T04:24:59.942Z,100489.56
2022-11-09T04:26:31.784Z,100503.41
2022-11-09T04:28:04.752Z,100488.75
2022-11-09T04:29:36.920Z,100494.78
2022-11-09T04:31:08.934Z,100493.06
2022-11-09T04:32:40.736Z,100495.66
2022-11-09T04:34:12.569Z,100495.66
2022-11-09T04:35:44.439Z,100491.34
2022-11-09T04:38:49.097Z,100492.22
2022-11-09T04:40:21.149Z,100488.84
2022-11-09T04:41:53.099Z,100493.16
2022-11-09T04:43:24.986Z,100500.03
2022-11-09T04:44:56.875Z,100494.88
2022-11-09T04:46:28.766Z,100499.16
2022-11-09T04:48:01.350Z,100494.84
2022-11-09T04:49:33.132Z,100498.31
2022-11-09T04:51:08.377Z,100494.91
2022-11-09T04:52:40.526Z,100503.56
2022-11-09T04:54:12.615Z,100500.16
2022-11-09T04:55:44.820Z,100512.25
2022-11-09T04:57:16.730Z,100509.69
2022-11-09T04:58:49.649Z,100515.72
2022-11-09T05:00:21.645Z,100514.00
2022-11-09T05:01:53.487Z,100513.97
2022-11-09T05:03:25.473Z,100512.28
2022-11-09T05:04:57.432Z,100515.72
2022-11-09T05:06:32.249Z,100517.44
2022-11-09T05:08:04.655Z,100516.56
2022-11-09T05:09:37.088Z,100517.41
2022-11-09T05:11:09.001Z,100517.41
2022-11-09T05:12:45.618Z,100522.59
2022-11-09T05:14:17.998Z,100522.63
2022-11-09T05:15:50.035Z,100525.22
2022-11-09T05:17:21.909Z,100526.91
2022-11-09T05:18:53.940Z,100520.84
2022-11-09T05:20:25.910Z,100524.28
2022-11-09T05:22:17.772Z,100522.56
2022-11-09T05:24:01.795Z,100531.16
2022-11-09T05:25:34.337Z,100519.97
2022-11-09T05:27:09.191Z,100519.97
2022-11-09T05:28:41.089Z,100526.00
2022-11-09T05:30:12.987Z,100528.59
2022-11-09T05:31:51.856Z,100520.81
2022-11-09T05:33:24.250Z,100528.59
2022-11-09T05:34:56.394Z,100526.84
2022-11-09T05:36:28.898Z,100532.88
2022-11-09T05:38:00.869Z,100535.47
2022-11-09T05:39:32.804Z,100531.13
2022-11-09T05:41:04.893Z,100535.44
2022-11-09T05:42:41.073Z,100534.56
2022-11-09T05:44:13.126Z,100531.94
2022-11-09T05:45:45.060Z,100536.28
2022-11-09T05:47:17.265Z,100540.59
2022-11-09T05:48:49.353Z,100544.03
2022-11-09T05:50:21.389Z,100542.31
2022-11-09T05:51:53.433Z,100546.59
2022-11-09T05:53:25.548Z,100549.16
2022-11-09T05:54:57.613Z,100550.84
2022-11-09T05:56:29.530Z,100548.22
2022-11-09T05:58:01.353Z,100554.25
2022-11-09T05:59:33.225Z,100550.78
2022-11-09T06:01:06.109Z,100555.09
2022-11-09T06:02:38.152Z,100555.09
2022-11-09T06:04:09.996Z,100555.09
2022-11-09T06:05:41.880Z,100556.81
2022-11-09T06:07:13.835Z,100557.66
2022-11-09T06:08:46.052Z,100567.13
2022-11-09T06:10:18.498Z,100561.94
2022-11-09T06:11:50.849Z,100561.91
2022-11-09T06:13:22.872Z,100561.91
2022-11-09T06:14:55.127Z,100561.84
2022-11-09T06:16:27.111Z,100566.16
2022-11-09T06:17:59.170Z,100561.81
2022-11-09T06:19:31.064Z,100557.47
2022-11-09T06:21:03.694Z,100561.75
2022-11-09T06:22:35.580Z,100562.63
2022-11-09T06:24:07.556Z,100567.78
2022-11-09T06:25:39.363Z,100568.66
2022-11-09T06:27:11.162Z,100566.03
2022-11-09T06:28:43.221Z,100566.03
2022-11-09T06:30:15.079Z,100566.88
2022-11-09T06:31:49.188Z,100565.13
2022-11-09T06:33:21.363Z,100560.81
2022-11-09T06:34:54.321Z,100568.53
2022-11-09T06:36:26.227Z,100570.22
2022-11-09T06:38:01.297Z,100569.28
2022-11-09T06:39:33.198Z,100569.25
2022-11-09T06:41:05.135Z,100565.75
2022-11-09T06:42:36.995Z,100564.84
2022-11-09T06:44:08.972Z,100574.28
2022-11-09T06:45:40.794Z,100572.53
2022-11-09T06:47:12.633Z,100573.38
2022-11-09T06:48:44.901Z,100569.00
2022-11-09T06:50:16.872Z,100564.63
2022-11-09T06:51:48.988Z,100575.84
2022-11-09T06:53:21.127Z,100573.19
2022-11-09T06:54:53.197Z,100572.28
2022-11-09T06:56:25.027Z,100574.81
2022-11-09T06:57:57.016Z,100571.31
2022-11-09T06:59:28.898Z,100573.91
2022-11-09T07:01:01.023Z,100573.00
2022-11-09T07:02:32.968Z,100572.09
2022-11-09T07:04:05.334Z,100574.63
2022-11-09T07:05:40.393Z,100577.19
2022-11-09T07:07:12.363Z,100577.13
2022-11-09T07:08:44.309Z,100574.53
2022-11-09T07:10:16.350Z,100571.84
2022-11-09T07:11:49.184Z,100573.53
2022-11-09T07:13:21.333Z,100576.06
2022-11-09T07:14:53.503Z,100572.53
2022-11-09T07:16:25.458Z,100571.56
2022-11-09T07:17:58.035Z,100571.53
2022-11-09T07:19:30.354Z,100564.53
2022-11-09T07:21:04.535Z,100567.09
2022-11-09T07:22:40.819Z,100571.31
2022-11-09T07:24:12.697Z,100566.91
2022-11-09T07:25:45.004Z,100572.94
2022-11-09T07:27:17.001Z,100564.19
2022-11-09T07:28:49.127Z,100574.50
2022-11-09T07:30:21.158Z,100571.81
2022-11-09T07:31:52.996Z,100571.72
2022-11-09T07:33:25.901Z,100576.00
2022-11-09T07:34:58.386Z,100568.13
2022-11-09T07:36:30.514Z,100570.66
2022-11-09T08:18:49.946Z,100549.47
2022-11-09T08:20:22.112Z,100544.16
2022-11-09T08:21:57.641Z,100548.38
2022-11-09T08:23:29.817Z,100547.38
2022-11-09T08:25:01.867Z,100547.34
2022-11-09T08:26:33.897Z,100548.00
2022-11-09T08:28:08.519Z,100556.56
2022-11-09T08:29:44.554Z,100548.63
2022-11-09T08:31:16.749Z,100555.47
2022-11-09T08:32:49.286Z,100557.09
2022-11-09T08:34:21.550Z,100548.31
2022-11-09T08:35:53.643Z,100550.88
2022-11-09T08:37:25.492Z,100545.47
2022-11-09T08:38:59.582Z,100550.56
2022-11-09T08:40:32.092Z,100546.09
2022-11-09T08:42:04.309Z,100553.81
2022-11-09T08:43:36.223Z,100548.50
2022-11-09T08:45:08.603Z,100546.66
2022-11-09T08:46:41.538Z,100544.75
2022-11-09T08:48:13.561Z,100550.72
2022-11-09T08:49:47.515Z,100541.09
2022-11-09T08:51:19.671Z,100539.16
2022-11-09T08:52:51.823Z,100540.69
2022-11-09T08:54:23.911Z,100547.56
2022-11-09T08:55:57.704Z,100549.25
2022-11-09T08:57:29.865Z,100546.50
2022-11-09T08:59:02.009Z,100543.78
2022-11-09T09:00:34.081Z,100540.16
2022-11-09T09:02:06.459Z,100550.63
2022-11-09T09:03:38.690Z,100543.66
2022-11-09T09:05:10.557Z,100538.38
2022-11-09T09:06:42.590Z,100541.72
2022-11-09T09:08:16.136Z,100539.81
2022-11-09T09:09:48.132Z,100529.16
2022-11-09T09:11:20.292Z,100539.56
2022-11-09T09:12:52.304Z,100542.97
2022-11-09T09:14:24.782Z,100532.41
2022-11-09T09:15:57.124Z,100534.06
2022-11-09T09:17:29.167Z,100530.53
2022-11-09T09:19:01.298Z,100531.25
2022-11-09T09:20:33.557Z,100535.47
2022-11-09T09:22:06.290Z,100532.75
2022-11-09T09:23:38.519Z,100531.03
2022-11-09T09:25:10.526Z,100531.75
2022-11-09T09:26:42.489Z,100532.38
2022-11-09T09:28:14.547Z,100523.50
2022-11-09T09:29:46.597Z,100520.72
2022-11-09T09:31:19.161Z,100524.13
2022-11-09T09:32:51.542Z,100524.06
2022-11-09T09:34:23.682Z,100517.81
2022-11-09T09:35:56.729Z,100515.94
2022-11-09T09:37:29.070Z,100522.03
2022-11-09T09:39:01.198Z,100513.22
2022-11-09T09:40:37.815Z,100519.16
2022-11-09T09:42:14.059Z,100508.69
2022-11-09T09:43:47.362Z,100512.06
2022-11-09T09:45:20.064Z,100513.66
2022-11-09T09:46:54.037Z,100508.44
2022-11-09T09:48:32.272Z,100502.31
2022-11-09T09:50:11.375Z,100509.16
2022-11-09T09:51:45.838Z,100499.31
2022-11-09T09:53:34.814Z,100498.22
2022-11-09T09:55:26.104Z,100503.38
2022-11-09T09:56:59.272Z,100493.59
2022-11-09T09:58:32.264Z,100502.19
2022-11-09T10:00:06.601Z,100500.28
2022-11-09T10:01:40.079Z,100496.88
2022-11-09T10:03:16.608Z,100499.31
2022-11-09T10:04:48.607Z,100498.16
2022-11-09T10:06:20.543Z,100488.50
2022-11-09T10:08:15.739Z,100489.34
2022-11-09T10:09:47.626Z,100490.97
2022-11-09T10:11:33.687Z,100488.09
2022-11-09T10:13:11.251Z,100484.50
2022-11-09T10:14:53.665Z,100478.34
2022-11-09T10:16:34.501Z,100482.56
2022-11-09T10:18:06.797Z,100483.41
2022-11-09T10:19:39.073Z,100485.06
2022-11-09T10:21:23.349Z,100478.19
2022-11-09T10:24:27.036Z,100471.81
2022-11-09T10:26:10.042Z,100467.25
2022-11-09T10:27:58.146Z,100467.84
2022-11-09T10:29:37.123Z,100470.19
2022-11-09T10:31:19.591Z,100464.91
2022-11-09T10:32:52.577Z,100452.47
2022-11-09T10:34:27.443Z,100456.81
2022-11-09T10:36:03.834Z,100460.28
2022-11-09T10:37:40.836Z,100448.81
2022-11-09T10:39:13.246Z,100447.03
2022-11-09T10:40:56.263Z,100444.19
2022-11-09T10:42:28.357Z,100454.41
2022-11-09T10:44:00.539Z,100443.88
2022-11-09T10:45:33.913Z,100438.44
2022-11-09T10:47:13.568Z,100443.56
2022-11-09T10:48:45.741Z,100439.84
2022-11-09T10:50:32.688Z,100431.81
2022-11-09T10:53:36.731Z,100430.81
2022-11-09T10:55:17.859Z,100437.06
2022-11-09T10:57:12.735Z,100432.47
2022-11-09T10:58:48.665Z,100428.75
2022-11-09T11:00:21.567Z,100436.38
2022-11-09T11:01:56.990Z,100427.06
2022-11-09T11:03:37.560Z,100422.69
2022-11-09T11:05:10.067Z,100422.63
2022-11-09T11:06:42.276Z,100413.97
2022-11-09T11:08:40.553Z,100416.53
2022-11-09T11:10:18.259Z,100416.41
2022-11-09T11:11:50.320Z,100413.44
2022-11-09T11:13:22.828Z,100414.38
2022-11-09T11:14:54.863Z,100412.63
2022-11-09T11:16:33.077Z,100415.84
2022-11-09T11:18:06.031Z,100412.19
2022-11-09T11:19:39.232Z,100414.94
2022-11-09T11:22:44.154Z,100418.22
2022-11-09T11:24:20.210Z,100403.22
2022-11-09T11:25:57.544Z,100406.81
2022-11-09T11:27:29.443Z,100410.28
2022-11-09T11:29:12.113Z,100409.50
2022-11-09T11:30:44.151Z,100400.63
2022-11-09T11:32:17.349Z,100403.25
2022-11-09T11:33:49.915Z,100410.22
2022-11-09T11:35:22.000Z,100403.78
2022-11-09T11:37:04.277Z,100406.94
2022-11-09T11:38:44.451Z,100406.66
2022-11-09T11:40:17.518Z,100399.47
2022-11-09T11:42:04.663Z,100398.69
2022-11-09T11:43:42.807Z,100399.19
2022-11-09T11:45:39.688Z,100397.31
2022-11-09T11:47:21.135Z,100401.50
2022-11-09T11:48:53.095Z,100393.56
2022-11-09T11:50:43.862Z,100397.19
2022-11-09T11:52:18.471Z,100383.28
2022-11-09T11:54:02.568Z,100391.91
2022-11-09T11:57:20.718Z,100389.56
2022-11-09T11:58:56.969Z,100379.69
2022-11-09T12:00:29.077Z,100387.38
2022-11-09T12:02:04.095Z,100380.13
2022-11-09T12:03:39.440Z,100380.97
2022-11-09T12:05:20.826Z,100379.91
2022-11-09T12:06:52.856Z,100372.84
2022-11-09T12:08:32.043Z,100367.31
2022-11-09T12:10:19.370Z,100381.50
2022-11-09T12:11:58.655Z,100379.84
2022-11-09T12:13:47.010Z,100381.50
2022-11-09T12:15:40.285Z,100382.53
2022-11-09T12:17:18.920Z,100384.19
2022-11-09T12:18:57.715Z,100373.81
2022-11-09T12:20:48.549Z,100369.94
2022-11-09T12:22:25.411Z,100373.72
2022-11-09T12:24:13.903Z,100367.50
2022-11-09T12:25:45.769Z,100363.19
2022-11-09T12:27:36.672Z,100367.88
2022-11-09T12:29:18.096Z,100365.69
2022-11-09T12:32:29.285Z,100363.56
2022-11-09T12:34:07.114Z,100363.38
2022-11-09T12:35:41.377Z,100368.56
2022-11-09T12:37:35.887Z,100369.22
2022-11-09T12:39:26.532Z,100353.53
2022-11-09T12:41:05.765Z,100355.22
2022-11-09T12:42:39.889Z,100356.72
2022-11-09T12:44:20.360Z,100354.56
2022-11-09T12:45:52.780Z,100348.19
2022-11-09T12:47:27.769Z,100348.78
2022-11-09T12:49:00.454Z,100351.13
2022-11-09T12:50:32.765Z,100352.84
2022-11-09T12:52:06.064Z,100353.03
2022-11-09T12:53:38.757Z,100353.03
2022-11-09T12:55:17.979Z,100351.72
2022-11-09T12:56:55.110Z,100350.72
2022-11-09T12:58:30.289Z,100346.31
2022-11-09T13:01:40.136Z,100348.38
2022-11-09T13:03:23.240Z,100348.41
2022-11-09T13:04:59.774Z,100351.41
2022-11-09T14:00:23.670Z,100359.38
2022-11-09T14:01:57.284Z,100357.75
2022-11-09T14:03:29.759Z,100356.81
2022-11-09T14:05:02.212Z,100365.63
2022-11-09T14:06:34.271Z,100359.59
2022-11-09T14:08:06.281Z,100358.72
2022-11-09T14:09:58.421Z,100361.50
2022-11-09T14:11:34.108Z,100360.69
2022-11-09T14:13:08.779Z,100361.59
2022-11-09T14:14:45.743Z,100362.03
2022-11-09T14:16:33.447Z,100357.78
2022-11-09T14:18:15.317Z,100356.06
2022-11-09T14:19:50.841Z,100359.09
2022-11-09T14:21:26.990Z,100356.56
2022-11-09T14:22:58.947Z,100351.53
2022-11-09T14:24:33.151Z,100350.75
2022-11-09T14:26:16.434Z,100356.78
2022-11-09T14:27:57.605Z,100351.81
2022-11-09T14:29:33.423Z,100353.06
2022-11-09T14:31:05.698Z,100354.06
2022-11-09T14:32:37.804Z,100352.88
2022-11-09T14:34:13.395Z,100348.00
2022-11-09T14:35:45.457Z,100360.38
2022-11-09T14:37:17.703Z,100353.44
2022-11-09T14:38:49.722Z,100360.47
2022-11-09T14:40:32.078Z,100358.81
2022-11-09T14:42:04.986Z,100359.78
2022-11-09T14:43:41.379Z,100360.97
2022-11-09T14:45:14.808Z,100365.41
2022-11-09T14:46:47.057Z,100361.06
2022-11-09T14:48:20.214Z,100357.66
2022-11-09T14:49:52.558Z,100357.84
2022-11-09T14:51:26.925Z,100364.06
2022-11-09T14:52:59.014Z,100357.28
2022-11-09T14:54:31.221Z,100360.94
2022-11-09T14:56:04.879Z,100369.00
2022-11-09T14:57:37.033Z,100364.84
2022-11-09T14:59:11.536Z,100367.63
2022-11-09T15:00:46.183Z,100370.50
2022-11-09T15:02:19.050Z,100368.06
2022-11-09T15:04:09.355Z,100372.66
2022-11-09T15:05:41.570Z,100377.41
2022-11-09T15:07:14.632Z,100371.50
2022-11-09T15:09:06.843Z,100369.13
2022-11-09T15:10:38.873Z,100372.84
2022-11-09T15:12:17.694Z,100373.09
2022-11-09T15:13:49.723Z,100374.19
2022-11-09T15:15:23.663Z,100375.19
2022-11-09T15:17:08.280Z,100373.66
2022-11-09T15:18:42.859Z,100377.41
2022-11-09T15:20:14.794Z,100376.72
2022-11-09T15:21:46.721Z,100373.50
2022-11-09T15:23:38.259Z,100378.03
2022-11-09T15:25:30.841Z,100381.66
2022-11-09T15:28:47.849Z,100384.69
2022-11-09T15:30:33.613Z,100389.28
2022-11-09T15:32:11.331Z,100380.03
2022-11-09T15:33:48.222Z,100384.66
2022-11-09T15:35:20.518Z,100386.78
2022-11-09T15:36:58.380Z,100386.22
2022-11-09T15:38:30.635Z,100382.09
2022-11-09T15:40:02.701Z,100384.13
2022-11-09T15:41:34.992Z,100388.84
2022-11-09T15:43:07.266Z,100384.66
2022-11-09T15:44:39.617Z,100393.53
2022-11-09T15:46:15.360Z,100393.66
2022-11-09T15:47:54.577Z,100399.03
2022-11-09T15:49:27.526Z,100399.25
2022-11-09T15:50:59.602Z,100398.56
2022-11-09T15:52:31.847Z,100401.34
2022-11-09T15:54:03.933Z,100403.22
2022-11-09T15:55:35.978Z,100398.16
2022-11-09T15:57:08.177Z,100411.44
2022-11-09T15:58:40.170Z,100407.34
2022-11-09T16:00:17.862Z,100404.06
2022-11-09T16:01:53.602Z,100411.25
2022-11-09T16:03:25.607Z,100406.25
2022-11-09T16:04:57.760Z,100414.31
2022-11-09T16:06:30.398Z,100413.56
2022-11-09T16:08:03.034Z,100412.03
2022-11-09T16:09:35.095Z,100418.22
2022-11-09T16:11:08.181Z,100420.06
2022-11-09T16:12:45.187Z,100416.81
2022-11-09T16:14:20.562Z,100410.06
2022-11-09T16:15:52.429Z,100413.78
2022-11-09T16:17:24.425Z,100416.59
2022-11-09T16:18:57.265Z,100417.59
2022-11-09T16:20:29.530Z,100423.78
2022-11-09T16:22:03.128Z,100425.72
2022-11-09T16:23:35.885Z,100431.09
2022-11-09T16:25:08.109Z,100427.75
2022-11-09T16:26:40.164Z,100435.69
2022-11-09T16:28:12.116Z,100440.13
2022-11-09T16:29:44.063Z,100438.47
2022-11-09T16:31:19.044Z,100435.94
2022-11-09T16:32:51.277Z,100446.41
2022-11-09T16:34:23.488Z,100442.22
2022-11-09T16:35:56.212Z,100440.63
2022-11-09T16:37:29.625Z,100444.16
2022-11-09T16:39:05.216Z,100446.00
2022-11-09T16:40:38.107Z,100446.03
2022-11-09T16:42:11.130Z,100445.31
2022-11-09T16:43:43.625Z,100443.69
2022-11-09T16:45:16.174Z,100450.75
2022-11-09T16:46:49.975Z,100445.66
2022-11-09T16:48:22.169Z,100447.53
2022-11-09T16:49:54.314Z,100446.78
2022-11-09T16:51:26.320Z,100447.78
2022-11-09T16:52:58.468Z,100448.81
2022-11-09T16:54:30.661Z,100447.22
2022-11-09T16:56:02.652Z,100451.66
2022-11-09T16:57:34.715Z,100449.13
2022-11-09T16:59:06.707Z,100447.53
2022-11-09T17:01:04.018Z,100451.94
2022-11-09T17:02:31.401Z,100452.94
2022-11-09T17:04:03.536Z,100450.44
2022-11-09T17:05:35.668Z,100448.75
2022-11-09T17:07:09.855Z,100453.19
2022-11-09T17:08:42.137Z,100446.34
2022-11-09T17:10:14.144Z,100453.28
2022-11-09T17:11:46.011Z,100449.84
2022-11-09T17:13:18.053Z,100444.69
2022-11-09T17:14:50.052Z,100446.44
2022-11-09T17:16:22.160Z,100449.09
2022-11-09T17:19:31.717Z,100450.94
2022-11-09T17:21:04.327Z,100452.72
2022-11-09T17:22:36.619Z,100453.63
2022-11-09T17:24:10.339Z,100450.19
2022-11-09T17:25:42.320Z,100458.91
2022-11-09T17:27:14.333Z,100465.91
2022-11-09T17:28:47.427Z,100461.63
2022-11-09T17:30:19.597Z,100466.00
2022-11-09T17:31:51.758Z,100465.25
2022-11-09T17:33:25.276Z,100465.44
2022-11-09T17:34:57.126Z,100469.00
2022-11-09T17:36:49.217Z,100465.69
2022-11-09T17:38:21.778Z,100463.22
2022-11-09T17:39:54.228Z,100464.13
2022-11-09T17:41:26.341Z,100471.91
2022-11-09T17:43:00.135Z,100474.53
2022-11-09T17:44:32.197Z,100469.34
2022-11-09T17:46:08.028Z,100474.56
2022-11-09T17:47:40.017Z,100468.53
2022-11-09T17:49:12.107Z,100468.56
2022-11-09T17:50:44.290Z,100475.47
2022-11-09T17:52:16.165Z,100462.53
2022-11-09T17:53:48.064Z,100467.69
2022-11-09T17:55:20.094Z,100459.97
2022-11-09T17:56:52.085Z,100466.06
2022-11-09T17:58:25.083Z,100471.28
2022-11-09T17:59:57.170Z,100470.44
2022-11-09T18:01:30.447Z,100460.19
2022-11-09T18:03:02.941Z,100474.03
2022-11-09T18:04:34.887Z,100475.81
2022-11-09T18:06:10.826Z,100473.25
2022-11-09T18:07:42.741Z,100475.84
2022-11-09T18:11:07.380Z,100478.47
2022-11-09T18:12:39.353Z,100480.19
2022-11-09T18:14:11.533Z,100481.06
2022-11-09T18:15:43.607Z,100477.63
2022-11-09T18:18:48.438Z,100472.50
2022-11-09T18:20:20.304Z,100487.16
2022-11-09T18:21:52.307Z,100482.00
2022-11-09T18:23:25.107Z,100481.19
2022-11-09T18:24:57.001Z,100492.47
2022-11-09T18:26:28.951Z,100489.00
2022-11-09T18:28:01.084Z,100490.78
2022-11-09T18:29:33.101Z,100495.09
2022-11-09T18:31:06.427Z,100493.44
2022-11-09T18:32:38.574Z,100490.88
2022-11-09T18:34:11.039Z,100489.16
2022-11-09T18:35:43.215Z,100493.47
2022-11-09T18:37:15.312Z,100497.81
2022-11-09T18:38:47.450Z,100496.97
2022-11-09T18:40:19.343Z,100506.47
2022-11-09T18:41:52.575Z,100498.75
2022-11-09T18:43:25.102Z,100504.78
2022-11-09T18:44:57.022Z,100500.47
2022-11-09T18:48:09.609Z,100505.63
2022-11-09T18:49:41.494Z,100507.34
2022-11-09T18:51:13.440Z,100506.50
2022-11-09T18:52:45.509Z,100514.25
2022-11-09T18:54:17.511Z,100507.34
2022-11-09T18:55:49.654Z,100505.66
2022-11-09T18:57:21.633Z,100510.81
2022-11-09T18:58:55.101Z,100512.53
2022-11-09T19:00:27.261Z,100512.56
2022-11-09T19:01:59.210Z,100507.38
2022-11-09T19:03:31.252Z,100515.16
2022-11-09T19:05:03.447Z,100515.16
2022-11-09T19:06:35.577Z,100511.72
2022-11-09T19:08:07.553Z,100518.59
2022-11-09T19:09:39.625Z,100508.28
2022-11-09T19:11:12.244Z,100513.44
2022-11-09T19:12:44.109Z,100511.72
2022-11-09T19:14:16.034Z,100520.34
2022-11-09T19:17:34.008Z,100513.47
2022-11-09T19:19:06.077Z,100516.88
2022-11-09T19:20:38.851Z,100518.59
2022-11-09T19:22:17.140Z,100518.59
2022-11-09T19:23:49.132Z,100522.91
2022-11-09T19:25:21.034Z,100518.63
2022-11-09T19:26:54.995Z,100516.03
2022-11-09T19:28:26.867Z,100513.44
2022-11-09T19:29:58.828Z,100516.03
2022-11-09T19:31:30.805Z,100516.91
2022-11-09T19:33:03.940Z,100510.03
2022-11-09T19:34:35.909Z,100518.63
2022-11-09T19:36:29.294Z,100512.59
2022-11-09T19:38:05.144Z,100514.31
2022-11-09T19:39:42.837Z,100522.91
2022-11-09T19:41:15.476Z,100522.91
2022-11-09T19:42:47.407Z,100519.47
2022-11-09T19:44:19.330Z,100519.47
2022-11-09T19:45:51.245Z,100533.25
2022-11-09T19:47:23.089Z,100526.38
2022-11-09T19:48:55.037Z,100529.78
2022-11-09T19:50:40.615Z,100523.75
2022-11-09T19:52:12.977Z,100521.19